Time;durP1;ratioP1;P1;durP2;ratioP2;P2;SDS_P1;SDS_P2;PMS_P1;PMS_P2;Temp;Humidity;BMP_temperature;BMP_pressure;BME280_temperature;BME280_humidity;BME280_pressure;Samples;Min_cycle;Max_cycle;Signal;HPM_P1;HPM_P2
2022/07/30 00:00:20;;;;;;;7.87;7.17;;;;;;;20.67;83.24;98109.41;4228110;27;20643;-85
2022/07/30 00:02:28;;;;;;;8.20;7.43;;;;;;;20.61;82.14;98111.88;4206166;28;20631;-84
2022/07/30 00:04:32;;;;;;;8.07;7.37;;;;;;;20.54;81.77;98109.06;4206867;28;20639;-85
2022/07/30 00:06:36;;;;;;;10.97;7.30;;;;;;;20.48;83.54;98107.06;4218466;28;20674;-85
2022/07/30 00:08:39;;;;;;;9.47;7.97;;;;;;;20.46;83.40;98110.88;4208956;28;20683;-84
2022/07/30 00:10:42;;;;;;;9.53;8.30;;;;;;;20.45;84.18;98114.53;4210066;28;20658;-84
2022/07/30 00:12:47;;;;;;;8.47;7.67;;;;;;;20.43;82.47;98112.06;4191503;28;20735;-85
2022/07/30 00:14:51;;;;;;;7.60;6.90;;;;;;;20.42;82.93;98114.88;4206817;28;20735;-84
2022/07/30 00:16:54;;;;;;;8.63;7.83;;;;;;;20.42;83.05;98120.16;4204750;28;20668;-85
2022/07/30 00:18:58;;;;;;;8.40;7.70;;;;;;;20.40;83.97;98120.34;4206968;28;20633;-85
2022/07/30 00:21:02;;;;;;;7.90;7.20;;;;;;;20.34;83.49;98126.28;4209877;28;20668;-84
2022/07/30 00:23:05;;;;;;;7.90;7.00;;;;;;;20.32;85.09;98133.56;4194520;28;20712;-84
2022/07/30 00:25:08;;;;;;;8.37;7.60;;;;;;;20.29;84.70;98122.47;4206804;28;20634;-84
2022/07/30 00:27:13;;;;;;;9.07;8.17;;;;;;;20.23;84.75;98123.13;4211291;28;20722;-84
2022/07/30 00:29:16;;;;;;;9.20;7.97;;;;;;;20.20;84.87;98120.78;4225522;28;20665;-85
2022/07/30 00:31:19;;;;;;;7.97;7.17;;;;;;;20.19;84.02;98123.59;4192975;28;20666;-84
2022/07/30 00:33:22;;;;;;;8.30;7.50;;;;;;;20.18;85.27;98132.56;4192760;28;20647;-85
2022/07/30 00:35:27;;;;;;;8.50;7.80;;;;;;;20.17;84.65;98136.19;4191933;28;20632;-84
2022/07/30 00:37:30;;;;;;;8.13;7.40;;;;;;;20.14;85.74;98136.50;4205321;28;20623;-84
2022/07/30 00:39:33;;;;;;;8.63;7.83;;;;;;;20.12;85.29;98135.84;4208685;28;20618;-84
2022/07/30 00:41:55;;;;;;;7.43;6.83;;;;;;;20.05;84.64;98127.72;4213043;28;20626;-84
2022/07/30 00:43:58;;;;;;;8.10;7.40;;;;;;;20.02;85.56;98140.47;4207111;28;20657;-84
2022/07/30 00:46:01;;;;;;;8.70;7.90;;;;;;;20.02;85.80;98148.41;4220721;28;21230;-84
2022/07/30 00:48:05;;;;;;;7.80;7.10;;;;;;;20.00;85.23;98143.25;4208270;28;20619;-84
2022/07/30 00:50:10;;;;;;;8.90;7.60;;;;;;;19.97;84.63;98148.06;4205505;28;20691;-84
2022/07/30 00:52:14;;;;;;;8.20;7.50;;;;;;;19.90;84.67;98141.75;4192854;28;20660;-84
2022/07/30 00:54:18;;;;;;;8.57;7.80;;;;;;;19.87;85.30;98144.72;4211568;28;20623;-84
2022/07/30 00:56:21;;;;;;;8.10;7.40;;;;;;;19.84;84.90;98145.00;4216234;28;20651;-84
2022/07/30 00:58:25;;;;;;;9.23;7.77;;;;;;;19.83;86.52;98153.09;4207365;28;20634;-85
2022/07/30 01:00:28;;;;;;;7.87;7.13;;;;;;;19.78;84.99;98155.41;4193725;28;20639;-84
2022/07/30 01:02:33;;;;;;;8.20;7.50;;;;;;;19.74;86.10;98154.91;4195506;28;20675;-84
2022/07/30 01:04:36;;;;;;;8.43;7.63;;;;;;;19.69;85.74;98151.88;4219051;28;20706;-84
2022/07/30 01:06:39;;;;;;;8.40;7.60;;;;;;;19.65;86.61;98157.66;4211224;28;20647;-84
2022/07/30 01:08:44;;;;;;;9.63;7.43;;;;;;;19.60;85.25;98149.38;4193696;28;20639;-85
2022/07/30 01:10:47;;;;;;;9.00;8.10;;;;;;;19.59;85.84;98148.56;4210721;28;20680;-84
2022/07/30 01:12:51;;;;;;;7.73;7.13;;;;;;;19.57;86.65;98150.50;4211044;28;20627;-84
2022/07/30 01:14:57;;;;;;;8.83;8.03;;;;;;;19.53;85.43;98159.78;4206728;28;20632;-85
2022/07/30 01:17:00;;;;;;;9.37;7.90;;;;;;;19.50;85.29;98152.16;4207640;28;20644;-85
2022/07/30 01:21:32;;;;;;;8.50;7.70;;;;;;;19.41;86.76;98149.63;4208584;28;20648;-85
2022/07/30 01:23:39;;;;;;;8.50;7.80;;;;;;;19.35;86.71;98152.91;4193893;28;20649;-85
2022/07/30 01:25:53;;;;;;;9.93;7.90;;;;;;;19.29;85.74;98160.63;4192784;28;20631;-84
2022/07/30 01:28:00;;;;;;;8.20;7.40;;;;;;;19.27;86.03;98159.94;4208548;28;20634;-85
2022/07/30 01:30:06;;;;;;;8.60;7.80;;;;;;;19.25;86.55;98151.34;4201540;28;20648;-85
2022/07/30 01:32:11;;;;;;;8.80;8.00;;;;;;;19.23;87.61;98154.16;4206649;28;20674;-85
2022/07/30 01:34:16;;;;;;;8.60;7.80;;;;;;;19.23;87.41;98155.94;4207659;28;21236;-85
2022/07/30 01:36:21;;;;;;;8.40;7.57;;;;;;;19.18;86.32;98155.59;4218050;28;20632;-84
2022/07/30 01:38:25;;;;;;;8.93;8.00;;;;;;;19.11;87.50;98160.69;4208488;28;21192;-85
2022/07/30 01:40:34;;;;;;;8.50;7.80;;;;;;;19.09;87.17;98153.88;4191108;28;20685;-84
2022/07/30 01:42:40;;;;;;;8.90;7.57;;;;;;;19.08;87.31;98149.59;4211560;28;21244;-85
2022/07/30 01:44:44;;;;;;;8.93;8.13;;;;;;;19.06;86.67;98151.53;4207235;28;20683;-85
2022/07/30 01:46:48;;;;;;;8.83;8.00;;;;;;;19.03;87.31;98154.50;4189166;28;20664;-85
2022/07/30 01:48:53;;;;;;;9.60;7.80;;;;;;;19.01;87.68;98154.66;4223484;28;20647;-85
2022/07/30 01:50:58;;;;;;;8.80;7.83;;;;;;;19.01;87.41;98159.94;4202942;28;21015;-84
2022/07/30 01:53:07;;;;;;;8.63;7.83;;;;;;;18.96;86.94;98162.19;4220798;28;21204;-84
2022/07/30 01:55:13;;;;;;;8.80;8.10;;;;;;;18.91;86.86;98168.91;4202238;28;20615;-85
2022/07/30 01:57:19;;;;;;;9.10;8.20;;;;;;;18.84;87.54;98157.31;4190211;28;20641;-85
2022/07/30 01:59:25;;;;;;;10.70;8.20;;;;;;;18.80;86.80;98158.59;4193973;28;21080;-85
2022/07/30 02:01:28;;;;;;;8.70;7.90;;;;;;;18.80;87.63;98165.72;4209783;28;20638;-85
2022/07/30 02:03:34;;;;;;;8.83;7.93;;;;;;;18.77;86.93;98161.56;4196183;28;20744;-84
2022/07/30 02:05:38;;;;;;;9.53;8.50;;;;;;;18.76;87.63;98167.00;4189845;28;20629;-84
2022/07/30 02:07:47;;;;;;;9.50;7.87;;;;;;;18.75;87.27;98166.16;4220139;27;20751;-84
2022/07/30 02:09:54;;;;;;;8.70;7.90;;;;;;;18.71;87.81;98156.06;4210178;28;20632;-84
2022/07/30 02:14:22;;;;;;;9.07;7.70;;;;;;;18.76;87.83;98167.81;4191205;28;20640;-84
2022/07/30 02:16:29;;;;;;;8.07;7.37;;;;;;;18.73;87.74;98160.19;4200157;28;21277;-85
2022/07/30 02:18:37;;;;;;;8.07;7.37;;;;;;;18.70;88.25;98157.03;4216486;28;20694;-84
2022/07/30 02:20:45;;;;;;;7.67;7.00;;;;;;;18.69;88.19;98158.84;4192762;28;20758;-84
2022/07/30 02:22:55;;;;;;;8.67;7.83;;;;;;;18.68;88.16;98159.81;4193909;28;20618;-84
2022/07/30 02:25:00;;;;;;;8.40;7.70;;;;;;;18.70;88.10;98155.22;4216510;28;20619;-84
2022/07/30 02:27:10;;;;;;;8.70;7.90;;;;;;;18.71;87.81;98162.16;4219831;27;21028;-84
2022/07/30 02:29:16;;;;;;;8.77;7.87;;;;;;;18.70;87.85;98155.22;4202357;28;20657;-84
2022/07/30 02:31:25;;;;;;;8.40;7.60;;;;;;;18.68;87.76;98162.47;4200950;28;20620;-84
2022/07/30 02:33:34;;;;;;;9.40;8.47;;;;;;;18.66;87.73;98160.97;4206034;28;20662;-84
2022/07/30 02:35:50;;;;;;;8.40;7.60;;;;;;;18.63;87.26;98162.09;4206637;28;20632;-84
2022/07/30 02:37:54;;;;;;;8.07;7.40;;;;;;;18.59;87.38;98168.66;4192559;28;20632;-84
2022/07/30 02:39:58;;;;;;;9.90;8.27;;;;;;;18.55;87.43;98169.97;4206911;28;20640;-84
2022/07/30 02:42:02;;;;;;;8.43;7.60;;;;;;;18.50;87.12;98169.56;4192694;28;21214;-84
2022/07/30 02:44:06;;;;;;;7.57;6.87;;;;;;;18.48;87.49;98179.47;4207269;28;20988;-84
2022/07/30 02:46:10;;;;;;;8.00;7.30;;;;;;;18.48;88.23;98176.81;4201818;28;20612;-84
2022/07/30 02:48:36;;;;;;;8.40;7.60;;;;;;;18.47;88.02;98180.44;4191002;28;21393;-84
2022/07/30 02:50:39;;;;;;;8.40;7.60;;;;;;;18.47;88.27;98182.25;4193983;28;20639;-84
2022/07/30 02:52:43;;;;;;;8.13;7.43;;;;;;;18.45;87.81;98182.41;4207064;28;20752;-84
2022/07/30 02:54:48;;;;;;;7.37;6.77;;;;;;;18.44;87.73;98186.03;4210097;28;21280;-85
2022/07/30 02:56:51;;;;;;;8.43;7.63;;;;;;;18.45;87.82;98190.34;4194358;28;21030;-84
2022/07/30 02:58:55;;;;;;;10.27;8.23;;;;;;;18.45;87.81;98192.97;4209238;28;20636;-84
2022/07/30 03:01:00;;;;;;;7.80;7.20;;;;;;;18.45;88.18;98203.53;4190107;28;20725;-84
2022/07/30 03:03:06;;;;;;;9.20;8.30;;;;;;;18.46;87.80;98202.56;4203361;28;20687;-85
2022/07/30 03:05:14;;;;;;;11.30;9.47;;;;;;;18.47;88.12;98198.94;4205780;28;20970;-84
2022/07/30 03:07:18;;;;;;;10.47;9.47;;;;;;;18.48;89.16;98203.25;4206206;28;21057;-85
2022/07/30 03:09:21;;;;;;;12.43;8.60;;;;;;;18.48;88.61;98197.97;4189856;28;20678;-84
2022/07/30 03:11:27;;;;;;;9.90;9.00;;;;;;;18.48;88.90;98203.25;4214941;28;20624;-85
2022/07/30 03:13:30;;;;;;;10.10;9.20;;;;;;;18.44;88.13;98201.88;4219148;28;21121;-84
2022/07/30 03:15:34;;;;;;;10.23;9.23;;;;;;;18.41;88.96;98203.16;4202780;28;20628;-84
2022/07/30 03:17:44;;;;;;;9.87;8.97;;;;;;;18.39;88.65;98207.75;4190988;28;21215;-84
2022/07/30 03:19:48;;;;;;;10.80;9.70;;;;;;;18.40;88.97;98212.88;4192180;28;21180;-84
2022/07/30 03:21:56;;;;;;;10.20;9.30;;;;;;;18.38;88.84;98216.69;4204545;28;21034;-84
2022/07/30 03:24:02;;;;;;;11.37;10.23;;;;;;;18.38;89.04;98216.69;4207778;28;20639;-84
2022/07/30 03:26:08;;;;;;;11.00;10.03;;;;;;;18.35;89.32;98216.97;4217940;28;20675;-85
2022/07/30 03:28:12;;;;;;;11.00;9.63;;;;;;;18.33;88.95;98221.56;4206702;28;20636;-84
2022/07/30 03:30:16;;;;;;;11.43;10.30;;;;;;;18.29;88.80;98225.50;4190899;28;20633;-84
2022/07/30 03:32:20;;;;;;;10.23;9.23;;;;;;;18.25;88.90;98227.63;4217768;28;20635;-84
2022/07/30 03:34:28;;;;;;;10.73;9.13;;;;;;;18.20;87.92;98229.03;4190895;28;20613;-84
2022/07/30 03:36:32;;;;;;;11.77;10.67;;;;;;;18.17;88.03;98219.56;4190587;28;21197;-85
2022/07/30 03:38:38;;;;;;;11.10;10.10;;;;;;;18.14;89.10;98226.97;4206762;28;20639;-84
2022/07/30 03:40:41;;;;;;;11.00;10.00;;;;;;;18.07;88.00;98226.72;4207681;28;20774;-84
2022/07/30 03:42:45;;;;;;;11.57;10.47;;;;;;;18.03;87.84;98224.50;4194377;28;21223;-84
2022/07/30 03:44:52;;;;;;;11.80;10.30;;;;;;;18.00;89.02;98232.72;4221190;28;20636;-84
2022/07/30 03:46:57;;;;;;;12.37;11.17;;;;;;;17.99;89.66;98229.22;4194789;28;20633;-84
2022/07/30 03:49:02;;;;;;;12.17;10.97;;;;;;;18.02;89.78;98230.75;4219302;28;21116;-84
2022/07/30 03:51:08;;;;;;;13.60;11.93;;;;;;;18.06;90.43;98234.78;4204220;28;20639;-84
2022/07/30 03:53:14;;;;;;;11.40;10.40;;;;;;;18.05;90.57;98239.19;4191546;28;20656;-84
2022/07/30 03:55:44;;;;;;;12.90;11.60;;;;;;;18.04;90.66;98237.56;4207252;28;20655;-84
2022/07/30 03:58:06;;;;;;;12.70;11.40;;;;;;;18.09;90.50;98247.69;4208653;28;20664;-84
2022/07/30 04:00:14;;;;;;;12.07;10.97;;;;;;;18.08;90.32;98246.84;4206649;28;20668;-84
2022/07/30 04:02:22;;;;;;;11.93;10.83;;;;;;;18.04;88.99;98244.63;4216263;28;21713;-84
2022/07/30 04:04:46;;;;;;;12.13;9.80;;;;;;;17.94;88.50;98249.16;4164968;28;20633;-85
2022/07/30 04:06:49;;;;;;;11.53;10.43;;;;;;;17.91;88.37;98248.63;4186712;28;20672;-84
2022/07/30 04:08:54;;;;;;;13.00;11.80;;;;;;;17.90;88.83;98252.22;4203655;28;20630;-84
2022/07/30 04:10:59;;;;;;;12.10;10.80;;;;;;;17.92;90.36;98254.56;4187816;28;21250;-84
2022/07/30 04:13:33;;;;;;;12.87;11.57;;;;;;;17.96;90.10;98255.91;4192242;28;20672;-84
2022/07/30 04:15:45;;;;;;;11.90;10.80;;;;;;;17.99;89.71;98257.44;4195040;28;20642;-84
2022/07/30 04:18:11;;;;;;;12.13;11.03;;;;;;;17.99;89.76;98262.72;4193555;28;20660;-84
2022/07/30 04:20:17;;;;;;;14.10;11.20;;;;;;;17.98;88.94;98258.41;4192602;28;20733;-85
2022/07/30 04:22:26;;;;;;;12.40;11.17;;;;;;;17.95;88.75;98250.78;4222966;28;20652;-84
2022/07/30 04:24:31;;;;;;;15.17;11.20;;;;;;;17.93;88.95;98256.22;4208363;28;20992;-84
2022/07/30 04:26:37;;;;;;;11.27;10.27;;;;;;;17.93;88.70;98263.31;4206017;28;20641;-85
2022/07/30 04:28:41;;;;;;;11.43;9.97;;;;;;;17.96;88.87;98268.28;4209637;28;21087;-84
2022/07/30 04:30:46;;;;;;;11.67;10.47;;;;;;;17.99;89.07;98279.38;4192667;28;20636;-85
2022/07/30 04:32:49;;;;;;;11.33;10.23;;;;;;;18.02;89.27;98275.63;4211149;28;20690;-85
2022/07/30 04:35:11;;;;;;;11.07;9.97;;;;;;;18.05;89.06;98278.81;4221914;28;20640;-84
2022/07/30 04:37:54;;;;;;;10.87;9.83;;;;;;;18.01;89.35;98282.72;4205468;28;20672;-84
2022/07/30 04:39:57;;;;;;;10.87;9.77;;;;;;;18.04;89.02;98289.50;4206068;28;20673;-84
2022/07/30 04:42:02;;;;;;;12.23;10.83;;;;;;;18.06;89.08;98284.94;4219902;28;20630;-84
2022/07/30 04:44:12;;;;;;;11.40;10.20;;;;;;;18.10;89.03;98296.84;4192796;28;20616;-84
2022/07/30 04:46:24;;;;;;;10.00;9.10;;;;;;;18.13;89.47;98291.31;4186739;28;20629;-84
2022/07/30 04:48:29;;;;;;;10.33;9.43;;;;;;;18.17;88.86;98295.34;4218276;28;20616;-84
2022/07/30 04:50:47;;;;;;;10.13;9.13;;;;;;;18.19;87.91;98294.22;4209273;28;20624;-84
2022/07/30 04:52:54;;;;;;;10.93;9.93;;;;;;;18.18;88.92;98289.91;4209202;28;21196;-84
2022/07/30 04:55:05;;;;;;;11.10;9.70;;;;;;;18.22;88.70;98287.78;4192565;28;20635;-84
2022/07/30 04:57:11;;;;;;;11.80;10.70;;;;;;;18.24;88.83;98299.88;4191652;28;20986;-83
2022/07/30 04:59:14;;;;;;;12.10;10.90;;;;;;;18.24;88.55;98299.88;4210573;28;20656;-84
2022/07/30 05:01:22;;;;;;;11.30;9.63;;;;;;;18.25;88.46;98301.56;4221953;28;20640;-84
2022/07/30 05:03:40;;;;;;;10.27;9.33;;;;;;;18.29;88.54;98302.09;4207651;28;20633;-84
2022/07/30 05:05:43;;;;;;;12.00;9.90;;;;;;;18.31;88.72;98300.13;4189484;28;20631;-84
2022/07/30 05:07:46;;;;;;;10.07;9.13;;;;;;;18.35;88.67;98312.88;4193583;28;20660;-84
2022/07/30 05:09:50;;;;;;;11.77;10.57;;;;;;;18.38;88.98;98312.59;4207116;28;20735;-84
2022/07/30 05:11:55;;;;;;;11.40;10.40;;;;;;;18.41;88.84;98311.47;4222360;28;20668;-84
2022/07/30 05:14:00;;;;;;;11.70;10.50;;;;;;;18.45;89.25;98313.69;4199586;28;20657;-84
2022/07/30 05:16:03;;;;;;;13.50;12.00;;;;;;;18.47;88.70;98320.47;4221223;27;21070;-84
2022/07/30 05:18:07;;;;;;;12.80;11.50;;;;;;;18.51;89.22;98318.38;4206356;28;20627;-84
2022/07/30 05:20:14;;;;;;;12.63;11.43;;;;;;;18.55;88.70;98317.94;4221181;27;20734;-84
2022/07/30 05:22:36;;;;;;;11.67;10.47;;;;;;;18.60;88.72;98315.66;4208084;28;20652;-84
2022/07/30 05:24:46;;;;;;;11.00;10.00;;;;;;;18.69;89.30;98312.13;4206949;28;21086;-84
2022/07/30 05:26:50;;;;;;;11.53;10.43;;;;;;;18.78;88.28;98316.53;4187557;28;20635;-84
2022/07/30 05:28:55;;;;;;;12.20;11.10;;;;;;;18.87;88.46;98312.97;4192399;28;20626;-86
2022/07/30 05:31:14;;;;;;;12.60;11.30;;;;;;;18.97;89.34;98322.50;4221748;28;20802;-84
2022/07/30 05:33:23;;;;;;;11.60;10.50;;;;;;;19.05;88.81;98329.72;4207064;28;20644;-84
2022/07/30 05:35:48;;;;;;;12.10;10.63;;;;;;;19.15;90.26;98327.81;4196214;28;21034;-84
2022/07/30 05:37:51;;;;;;;12.53;11.33;;;;;;;19.26;89.78;98328.44;4208120;28;20719;-84
2022/07/30 05:39:54;;;;;;;12.40;10.87;;;;;;;19.42;88.61;98323.25;4206690;28;20613;-84
2022/07/30 05:42:25;;;;;;;11.00;9.97;;;;;;;19.70;88.07;98330.91;4218483;28;20987;-84
2022/07/30 05:44:32;;;;;;;11.60;10.50;;;;;;;20.03;87.21;98330.19;4206763;28;20646;-84
2022/07/30 05:46:36;;;;;;;11.60;10.50;;;;;;;20.33;87.64;98333.97;4192668;28;20669;-84
2022/07/30 05:48:39;;;;;;;11.60;9.73;;;;;;;20.65;85.64;98333.28;4209295;28;20637;-85
2022/07/30 05:50:43;;;;;;;10.70;9.57;;;;;;;20.91;84.37;98335.69;4200953;28;20665;-84
2022/07/30 05:52:46;;;;;;;10.77;9.77;;;;;;;21.18;83.00;98342.53;4204736;28;21226;-84
2022/07/30 05:55:10;;;;;;;11.07;10.07;;;;;;;21.49;82.17;98342.59;4208979;28;20749;-85
2022/07/30 05:57:28;;;;;;;12.77;9.97;;;;;;;21.77;81.25;98342.09;4209677;28;20649;-84
2022/07/30 05:59:32;;;;;;;10.07;9.07;;;;;;;22.03;80.91;98350.66;4193870;28;20638;-85
2022/07/30 06:02:01;;;;;;;10.40;9.40;;;;;;;22.32;78.75;98359.75;4216542;28;20738;-84
2022/07/30 06:04:23;;;;;;;12.50;9.70;;;;;;;22.62;77.79;98350.19;4215329;28;20683;-84
2022/07/30 06:06:33;;;;;;;11.73;9.67;;;;;;;22.85;76.85;98362.53;4191397;28;21053;-84
2022/07/30 06:08:36;;;;;;;10.53;9.63;;;;;;;23.04;75.11;98362.16;4204639;28;20630;-84
2022/07/30 06:10:40;;;;;;;10.60;9.60;;;;;;;23.24;74.80;98353.53;4191301;28;22210;-86
2022/07/30 06:12:46;;;;;;;10.50;9.47;;;;;;;23.51;74.24;98364.47;4190071;28;20640;-85
2022/07/30 06:14:51;;;;;;;10.73;9.73;;;;;;;23.74;72.49;98363.50;4210153;28;20694;-84
2022/07/30 06:17:02;;;;;;;10.83;9.83;;;;;;;24.02;72.84;98363.72;4208079;28;21473;-84
2022/07/30 06:19:22;;;;;;;9.63;8.73;;;;;;;24.29;72.51;98369.28;4204840;28;21218;-84
2022/07/30 06:21:25;;;;;;;10.97;9.80;;;;;;;24.50;70.60;98377.44;4189976;28;20638;-83
2022/07/30 06:23:41;;;;;;;10.40;9.40;;;;;;;24.66;69.66;98367.41;4209515;28;20637;-84
2022/07/30 06:25:58;;;;;;;10.27;9.27;;;;;;;24.81;69.70;98376.22;4205295;28;21197;-85
2022/07/30 06:28:01;;;;;;;10.00;9.10;;;;;;;24.95;68.35;98378.03;4191048;28;21255;-84
2022/07/30 06:30:27;;;;;;;8.67;7.87;;;;;;;25.09;68.13;98369.19;4189083;28;20741;-84
2022/07/30 06:32:35;;;;;;;10.17;8.57;;;;;;;25.26;67.56;98376.78;4205107;28;21230;-84
2022/07/30 06:34:39;;;;;;;11.00;8.93;;;;;;;25.40;67.23;98371.38;4185192;28;21407;-84
2022/07/30 06:36:43;;;;;;;9.43;8.43;;;;;;;25.57;67.57;98370.13;4215303;28;21749;-84
2022/07/30 06:39:04;;;;;;;8.23;7.40;;;;;;;25.70;65.96;98368.44;4200854;28;20647;-84
2022/07/30 06:41:26;;;;;;;10.17;7.50;;;;;;;25.86;66.26;98378.03;4212389;28;20725;-84
2022/07/30 06:43:33;;;;;;;9.80;7.60;;;;;;;26.02;65.17;98370.56;4209458;28;20637;-84
2022/07/30 06:46:05;;;;;;;12.57;7.77;;;;;;;26.19;63.59;98377.25;4193687;28;21078;-85
2022/07/30 06:48:14;;;;;;;8.43;7.60;;;;;;;26.36;64.84;98378.69;4193435;28;21001;-89
2022/07/30 06:50:19;;;;;;;8.10;7.40;;;;;;;26.52;64.29;98378.34;4219904;27;20667;-88
2022/07/30 06:52:22;;;;;;;8.00;7.30;;;;;;;26.67;63.06;98379.88;4205448;28;20636;-92
2022/07/30 06:54:27;;;;;;;8.03;7.20;;;;;;;26.83;62.50;98383.06;4203948;28;21018;-87
2022/07/30 06:56:33;;;;;;;7.73;7.03;;;;;;;26.97;62.08;98383.97;4218526;28;20639;-87
2022/07/30 06:58:39;;;;;;;8.20;7.40;;;;;;;27.11;61.50;98381.97;4193092;28;20635;-88
2022/07/30 07:01:01;;;;;;;11.20;8.23;;;;;;;27.14;61.02;98386.13;4207920;28;20655;-87
2022/07/30 07:03:05;;;;;;;8.43;7.53;;;;;;;27.25;60.76;98383.66;4186441;28;20646;-88
2022/07/30 07:05:15;;;;;;;11.27;7.73;;;;;;;27.35;60.89;98386.81;4201824;28;20725;-89
2022/07/30 07:07:21;;;;;;;8.77;7.87;;;;;;;27.44;61.46;98385.59;4194907;28;20659;-87
2022/07/30 07:09:44;;;;;;;10.00;8.30;;;;;;;27.63;60.88;98382.16;4207196;28;20677;-89
2022/07/30 07:12:10;;;;;;;10.07;8.53;;;;;;;27.75;59.21;98378.66;4208563;28;20635;-87
2022/07/30 07:14:16;;;;;;;11.50;8.20;;;;;;;27.86;59.99;98385.25;4203777;28;21079;-88
2022/07/30 07:16:20;;;;;;;9.27;8.43;;;;;;;27.97;59.71;98385.50;4207733;28;21268;-90
2022/07/30 07:18:24;;;;;;;11.90;7.93;;;;;;;28.11;59.09;98387.16;4189636;28;20721;-90
2022/07/30 07:20:37;;;;;;;8.13;7.33;;;;;;;28.22;58.47;98387.38;4220643;28;20633;-89
2022/07/30 07:22:42;;;;;;;7.83;7.13;;;;;;;28.39;58.44;98382.41;4203602;28;20699;-86
2022/07/30 07:24:47;;;;;;;7.47;6.80;;;;;;;28.50;58.89;98382.59;4220508;28;20634;-88
2022/07/30 07:26:56;;;;;;;8.90;7.33;;;;;;;28.60;58.58;98383.00;4202276;28;20619;-84
2022/07/30 07:28:59;;;;;;;9.00;7.90;;;;;;;28.70;58.94;98378.88;4215281;28;20627;-86
2022/07/30 07:31:08;;;;;;;13.43;7.70;;;;;;;28.78;57.76;98386.69;4204980;28;20638;-86
2022/07/30 07:33:12;;;;;;;10.23;8.63;;;;;;;28.91;57.45;98396.56;4202181;28;20624;-88
2022/07/30 07:35:19;;;;;;;8.40;7.60;;;;;;;28.97;57.38;98390.34;4192207;28;20659;-86
2022/07/30 07:37:25;;;;;;;10.40;7.90;;;;;;;29.03;56.71;98388.47;4206724;28;20666;-86
2022/07/30 07:39:30;;;;;;;11.40;7.00;;;;;;;28.97;56.81;98388.47;4189288;28;20633;-87
2022/07/30 07:41:33;;;;;;;7.13;6.40;;;;;;;29.12;57.55;98379.13;4212944;28;20646;-85
2022/07/30 07:43:52;;;;;;;7.73;6.93;;;;;;;29.29;56.79;98380.31;4206148;28;20667;-84
2022/07/30 07:46:05;;;;;;;8.63;7.73;;;;;;;29.44;55.44;98377.31;4215191;28;20706;-87
2022/07/30 07:48:10;;;;;;;8.13;7.33;;;;;;;29.42;54.97;98382.09;4200576;28;20642;-86
2022/07/30 07:50:25;;;;;;;6.87;6.27;;;;;;;29.49;55.83;98381.03;4206305;28;21281;-85
2022/07/30 07:52:30;;;;;;;8.70;7.53;;;;;;;29.46;55.38;98384.97;4202200;28;21025;-85
2022/07/30 07:54:33;;;;;;;8.70;7.70;;;;;;;29.55;54.96;98385.53;4211575;28;21236;-86
2022/07/30 07:56:36;;;;;;;8.50;7.17;;;;;;;29.63;55.87;98394.16;4194422;28;20651;-86
2022/07/30 07:58:41;;;;;;;8.40;6.77;;;;;;;29.72;55.09;98389.38;4193122;28;20652;-86
2022/07/30 08:00:47;;;;;;;10.40;6.73;;;;;;;29.86;54.82;98383.72;4208109;28;20654;-86
2022/07/30 08:02:52;;;;;;;9.97;6.90;;;;;;;29.95;54.31;98388.59;4202830;28;20626;-88
2022/07/30 08:04:55;;;;;;;8.40;7.10;;;;;;;29.96;54.10;98382.19;4191870;28;20795;-87
2022/07/30 08:07:20;;;;;;;8.40;6.90;;;;;;;29.94;53.75;98386.94;4204727;28;20868;-87
2022/07/30 08:09:50;;;;;;;8.37;7.20;;;;;;;29.98;53.05;98377.41;4179796;28;20635;-88
2022/07/30 08:12:12;;;;;;;8.67;6.93;;;;;;;30.06;52.58;98385.19;4225332;28;20655;-87
2022/07/30 08:14:38;;;;;;;8.30;6.53;;;;;;;30.19;53.55;98379.72;4189752;28;21220;-86
2022/07/30 08:17:08;;;;;;;8.10;6.80;;;;;;;30.31;52.43;98383.34;4201523;28;20630;-87
2022/07/30 08:19:31;;;;;;;7.17;6.50;;;;;;;30.42;52.97;98381.78;4222679;28;20699;-87
2022/07/30 08:21:52;;;;;;;12.40;9.93;;;;;;;30.44;51.83;98383.22;4208672;28;20665;-87
2022/07/30 08:23:55;;;;;;;15.17;6.80;;;;;;;30.52;52.24;98383.78;4204686;28;20628;-87
2022/07/30 08:26:00;;;;;;;8.40;7.30;;;;;;;30.55;51.92;98385.19;4199568;28;20641;-86
2022/07/30 08:28:04;;;;;;;10.77;6.97;;;;;;;30.57;51.39;98383.13;4191096;28;20630;-86
2022/07/30 08:30:09;;;;;;;7.77;6.93;;;;;;;30.61;51.87;98366.28;4205543;28;20634;-87
2022/07/30 08:32:13;;;;;;;7.83;7.03;;;;;;;30.64;50.90;98378.47;4203036;28;20630;-87
2022/07/30 08:34:19;;;;;;;7.73;6.90;;;;;;;30.69;51.11;98371.38;4188770;28;20699;-86
2022/07/30 08:36:27;;;;;;;9.67;6.23;;;;;;;30.74;50.69;98376.09;4204682;28;21053;-85
2022/07/30 08:38:31;;;;;;;9.80;6.30;;;;;;;30.75;49.75;98366.97;4208843;28;20688;-85
2022/07/30 08:40:35;;;;;;;11.80;6.83;;;;;;;30.81;50.18;98368.75;4204851;28;21283;-86
2022/07/30 08:42:41;;;;;;;8.27;5.43;;;;;;;30.75;50.07;98369.66;4190583;28;21089;-84
2022/07/30 08:44:45;;;;;;;6.20;5.60;;;;;;;30.63;49.92;98366.06;4205282;28;21026;-85
2022/07/30 08:46:51;;;;;;;5.93;5.43;;;;;;;30.62;50.94;98377.88;4217731;27;20630;-84
2022/07/30 08:49:15;;;;;;;7.73;5.33;;;;;;;30.73;50.96;98369.88;4205312;28;20631;-85
2022/07/30 08:51:19;;;;;;;5.70;5.20;;;;;;;30.83;50.62;98370.16;4189237;28;21223;-85
2022/07/30 08:53:42;;;;;;;9.30;5.03;;;;;;;30.93;48.47;98365.94;4222462;27;21196;-84
2022/07/30 08:55:45;;;;;;;7.00;5.03;;;;;;;30.81;48.86;98379.53;4192574;28;21061;-85
2022/07/30 08:57:49;;;;;;;6.87;5.33;;;;;;;30.75;47.85;98372.34;4208526;28;20685;-84
2022/07/30 08:59:53;;;;;;;21.73;6.90;;;;;;;30.80;48.95;98378.69;4222016;28;20632;-84
2022/07/30 09:02:03;;;;;;;10.93;5.47;;;;;;;30.95;48.82;98382.69;4222464;28;20624;-84
2022/07/30 09:04:22;;;;;;;7.83;5.93;;;;;;;31.18;49.37;98377.44;4203364;28;20637;-86
2022/07/30 09:06:28;;;;;;;7.70;6.20;;;;;;;31.26;48.46;98385.25;4200848;28;21313;-83
2022/07/30 09:08:32;;;;;;;9.10;6.77;;;;;;;31.22;47.27;98378.63;4203809;28;20724;-83
2022/07/30 09:10:36;;;;;;;8.40;6.50;;;;;;;31.24;48.63;98381.09;4219559;27;20636;-84
2022/07/30 09:12:40;;;;;;;10.53;7.27;;;;;;;30.93;47.50;98378.59;4192675;28;20635;-83
2022/07/30 09:15:01;;;;;;;7.00;5.30;;;;;;;30.72;47.91;98376.31;4192815;28;20728;-84
2022/07/30 09:17:05;;;;;;;6.87;6.00;;;;;;;30.76;48.18;98368.59;4192770;28;20687;-84
2022/07/30 09:19:14;;;;;;;8.47;7.57;;;;;;;30.60;47.73;98371.91;4205325;28;20662;-84
2022/07/30 09:21:19;;;;;;;7.93;7.10;;;;;;;30.55;48.99;98358.25;4190376;28;20669;-84
2022/07/30 09:23:27;;;;;;;9.43;5.43;;;;;;;30.64;48.17;98365.84;4203485;28;20630;-86
2022/07/30 09:25:50;;;;;;;7.47;5.57;;;;;;;30.53;49.30;98373.81;4224120;28;20685;-85
2022/07/30 09:28:13;;;;;;;6.87;5.83;;;;;;;30.00;50.18;98367.22;4206895;28;21620;-85
2022/07/30 09:30:47;;;;;;;8.77;5.67;;;;;;;29.63;50.51;98367.25;4218053;28;20632;-84
2022/07/30 09:33:08;;;;;;;7.63;6.93;;;;;;;29.29;50.25;98357.97;4205804;28;20630;-85
2022/07/30 09:35:35;;;;;;;7.67;5.90;;;;;;;29.24;51.13;98363.16;4185732;28;21282;-85
2022/07/30 09:37:47;;;;;;;10.83;6.43;;;;;;;29.19;51.33;98363.78;4205003;28;20753;-84
2022/07/30 09:40:15;;;;;;;5.63;5.00;;;;;;;29.51;52.25;98363.66;4206474;28;21221;-85
2022/07/30 09:42:44;;;;;;;7.53;6.17;;;;;;;29.76;49.67;98369.06;4222115;28;20738;-85
2022/07/30 09:44:50;;;;;;;6.37;5.77;;;;;;;29.48;49.12;98364.06;4210535;28;21258;-85
2022/07/30 09:46:54;;;;;;;7.50;6.80;;;;;;;29.34;50.24;98367.03;4189111;28;20685;-85
2022/07/30 09:49:14;;;;;;;6.30;5.70;;;;;;;29.55;51.52;98369.41;4207831;28;20749;-84
2022/07/30 09:51:17;;;;;;;6.57;5.87;;;;;;;29.41;50.76;98357.09;4204221;28;20673;-85
2022/07/30 09:53:54;;;;;;;6.00;5.50;;;;;;;29.25;50.01;98351.38;4202969;28;20642;-85
2022/07/30 09:56:03;;;;;;;6.53;5.40;;;;;;;28.85;50.48;98347.16;4204703;28;20641;-84
2022/07/30 09:58:07;;;;;;;6.23;5.27;;;;;;;28.72;50.86;98357.16;4203140;28;20656;-83
2022/07/30 10:00:21;;;;;;;5.53;4.93;;;;;;;28.55;52.43;98351.41;4215221;28;20627;-84
2022/07/30 10:02:49;;;;;;;5.13;4.53;;;;;;;28.98;52.37;98359.75;4214515;28;20642;-83
2022/07/30 10:05:12;;;;;;;6.17;5.57;;;;;;;29.41;50.73;98362.47;4224513;27;20734;-85
2022/07/30 10:07:18;;;;;;;5.80;5.30;;;;;;;29.67;50.92;98356.91;4205247;28;20671;-85